createdAt,value
2023-04-13T00:01:12.251Z,17.00
2023-04-13T00:03:41.823Z,17.00
2023-04-13T00:06:11.569Z,17.00
2023-04-13T00:08:42.922Z,17.00
2023-04-13T00:11:11.112Z,17.00
2023-04-13T00:13:42.843Z,17.00
2023-04-13T00:16:12.602Z,17.00
2023-04-13T00:18:42.331Z,17.00
2023-04-13T00:21:10.198Z,17.00
2023-04-13T00:23:38.091Z,17.00
2023-04-13T00:26:06.573Z,17.00
2023-04-13T00:28:34.468Z,17.00
2023-04-13T00:31:02.702Z,17.00
2023-04-13T00:33:31.011Z,17.00
2023-04-13T00:36:00.489Z,17.00
2023-04-13T00:38:29.886Z,17.00
2023-04-13T00:40:57.968Z,17.00
2023-04-13T00:43:26.165Z,17.00
2023-04-13T00:45:54.231Z,17.00
2023-04-13T00:48:23.435Z,17.00
2023-04-13T00:50:51.392Z,17.00
2023-04-13T00:53:21.053Z,17.00
2023-04-13T00:55:49.270Z,17.00
2023-04-13T00:58:17.490Z,17.00
2023-04-13T01:00:45.384Z,17.00
2023-04-13T01:03:13.490Z,17.00
2023-04-13T01:05:50.742Z,17.00
2023-04-13T01:08:28.523Z,17.00
2023-04-13T01:11:03.432Z,17.00
2023-04-13T01:13:35.818Z,17.00
2023-04-13T01:16:08.980Z,17.00
2023-04-13T01:18:41.625Z,17.00
2023-04-13T01:21:14.230Z,17.00
2023-04-13T01:23:52.830Z,17.00
2023-04-13T01:26:22.843Z,17.00
2023-04-13T01:28:54.248Z,17.00
2023-04-13T01:31:22.568Z,17.00
2023-04-13T01:33:51.311Z,17.00
2023-04-13T01:36:19.760Z,17.00
2023-04-13T01:38:48.969Z,17.00
2023-04-13T01:41:16.820Z,17.00
2023-04-13T01:43:45.166Z,17.00
2023-04-13T01:46:15.037Z,17.00
2023-04-13T01:48:48.238Z,17.00
2023-04-13T01:51:19.353Z,17.00
2023-04-13T01:53:50.058Z,17.00
2023-04-13T01:56:22.981Z,17.00
2023-04-13T01:58:56.261Z,17.00
2023-04-13T02:01:25.968Z,17.00
2023-04-13T02:03:54.294Z,17.00
2023-04-13T02:06:22.254Z,16.90
2023-04-13T02:08:52.611Z,16.90
2023-04-13T02:11:21.467Z,16.90
2023-04-13T02:13:49.611Z,16.90
2023-04-13T02:16:17.526Z,16.90
2023-04-13T02:18:47.269Z,16.90
2023-04-13T02:21:16.306Z,16.90
2023-04-13T02:23:44.681Z,16.90
2023-04-13T02:26:14.384Z,17.00
2023-04-13T02:28:42.392Z,17.00
2023-04-13T02:31:10.260Z,16.90
2023-04-13T02:33:39.857Z,16.90
2023-04-13T02:36:10.371Z,16.90
2023-04-13T02:38:38.341Z,16.90
2023-04-13T02:41:07.879Z,16.90
2023-04-13T02:43:35.784Z,17.00
2023-04-13T02:46:04.282Z,16.90
2023-04-13T02:48:32.202Z,16.90
2023-04-13T02:51:00.058Z,16.90
2023-04-13T02:53:29.381Z,16.90
2023-04-13T02:55:57.287Z,16.90
2023-04-13T02:58:25.360Z,16.90
2023-04-13T03:00:53.428Z,16.90
2023-04-13T03:03:21.343Z,16.90
2023-04-13T03:05:50.583Z,16.90
2023-04-13T03:08:18.816Z,16.90
2023-04-13T03:10:48.190Z,16.90
2023-04-13T03:13:16.109Z,16.90
2023-04-13T03:15:43.999Z,16.90
2023-04-13T03:18:11.858Z,16.90
2023-04-13T03:20:39.798Z,16.90
2023-04-13T03:23:07.677Z,16.90
2023-04-13T03:25:35.540Z,16.90
2023-04-13T03:28:04.910Z,16.90
2023-04-13T03:30:32.832Z,16.90
2023-04-13T03:33:00.839Z,16.90
2023-04-13T03:35:28.794Z,16.90
2023-04-13T03:37:56.641Z,16.90
2023-04-13T03:40:24.583Z,16.90
2023-04-13T03:42:52.415Z,16.90
2023-04-13T03:45:21.687Z,16.90
2023-04-13T03:47:49.596Z,16.90
2023-04-13T03:50:17.664Z,16.90
2023-04-13T03:52:45.542Z,16.90
2023-04-13T03:55:13.716Z,16.90
2023-04-13T03:57:41.679Z,16.90
2023-04-13T04:00:14.040Z,16.90
2023-04-13T04:02:43.947Z,16.90
2023-04-13T04:05:11.989Z,16.80
2023-04-13T04:07:39.935Z,16.90
2023-04-13T04:10:09.136Z,16.90
2023-04-13T04:12:37.168Z,16.80
2023-04-13T04:15:05.925Z,16.90
2023-04-13T04:17:33.915Z,16.80
2023-04-13T04:20:03.829Z,16.90
2023-04-13T04:22:34.846Z,16.80
2023-04-13T04:25:02.843Z,16.90
2023-04-13T04:27:31.527Z,16.80
2023-04-13T04:30:00.915Z,16.80
2023-04-13T04:32:28.844Z,16.90
2023-04-13T04:34:56.765Z,16.80
2023-04-13T04:37:26.212Z,16.80
2023-04-13T04:39:54.750Z,16.80
2023-04-13T04:42:22.732Z,16.80
2023-04-13T04:44:50.662Z,16.90
2023-04-13T04:47:19.557Z,16.80
2023-04-13T04:49:47.559Z,16.80
2023-04-13T04:52:15.785Z,16.80
2023-04-13T04:54:44.971Z,16.80
2023-04-13T04:57:14.529Z,16.80
2023-04-13T04:59:42.463Z,16.80
2023-04-13T05:02:10.504Z,16.80
2023-04-13T05:04:39.740Z,16.80
2023-04-13T05:07:07.604Z,16.80
2023-04-13T05:09:37.336Z,16.80
2023-04-13T05:12:07.537Z,16.80
2023-04-13T05:14:35.400Z,16.80
2023-04-13T05:17:03.303Z,16.80
2023-04-13T05:19:31.524Z,16.80
2023-04-13T05:22:01.056Z,16.80
2023-04-13T05:24:28.952Z,16.80
2023-04-13T05:26:57.741Z,16.80
2023-04-13T05:29:27.004Z,16.80
2023-04-13T05:31:54.877Z,16.80
2023-04-13T05:34:22.792Z,16.80
2023-04-13T05:36:50.664Z,16.80
2023-04-13T05:39:18.534Z,16.80
2023-04-13T05:41:46.501Z,16.80
2023-04-13T05:44:14.552Z,16.80
2023-04-13T05:46:43.785Z,16.80
2023-04-13T05:49:11.672Z,16.80
2023-04-13T05:51:39.696Z,16.80
2023-04-13T05:54:09.881Z,16.80
2023-04-13T05:56:37.898Z,16.80
2023-04-13T05:59:05.925Z,16.80
2023-04-13T06:01:34.993Z,16.80
2023-04-13T06:04:04.440Z,16.80
2023-04-13T06:06:32.652Z,16.80
2023-04-13T06:09:00.679Z,16.70
2023-04-13T06:11:28.791Z,16.80
2023-04-13T06:13:59.476Z,16.70
2023-04-13T06:16:28.080Z,16.70
2023-04-13T06:18:56.003Z,16.80
2023-04-13T06:21:25.935Z,16.70
2023-04-13T06:23:53.943Z,16.70
2023-04-13T06:26:21.888Z,16.70
2023-04-13T06:28:49.765Z,16.70
2023-04-13T06:31:17.758Z,16.70
2023-04-13T06:33:45.712Z,16.70
2023-04-13T06:36:13.721Z,16.70
2023-04-13T06:38:43.004Z,16.70
2023-04-13T06:41:10.842Z,16.70
2023-04-13T06:43:38.708Z,16.70
2023-04-13T06:46:07.949Z,16.70
2023-04-13T06:48:35.957Z,16.70
2023-04-13T06:51:04.086Z,16.70
2023-04-13T06:53:31.981Z,16.70
2023-04-13T06:56:01.203Z,16.70
2023-04-13T06:58:29.081Z,16.70
2023-04-13T07:00:56.999Z,16.70
2023-04-13T07:03:25.098Z,16.70
2023-04-13T07:05:53.038Z,16.70
2023-04-13T07:08:20.960Z,16.70
2023-04-13T07:10:54.030Z,16.70
2023-04-13T07:13:23.215Z,16.70
2023-04-13T07:15:51.717Z,16.70
2023-04-13T07:18:19.751Z,16.70
2023-04-13T07:20:48.050Z,16.70
2023-04-13T07:23:15.911Z,16.70
2023-04-13T07:25:44.523Z,16.70
2023-04-13T07:28:12.423Z,16.70
2023-04-13T07:30:45.347Z,16.70
2023-04-13T07:33:13.781Z,16.70
2023-04-13T07:35:41.687Z,16.70
2023-04-13T07:38:09.539Z,16.70
2023-04-13T07:40:37.433Z,16.70
2023-04-13T07:43:05.323Z,16.70
2023-04-13T07:45:33.235Z,16.70
2023-04-13T07:48:02.462Z,16.70
2023-04-13T07:50:30.395Z,16.70
2023-04-13T07:52:58.258Z,16.70
2023-04-13T07:55:26.175Z,16.70
2023-04-13T07:57:54.060Z,16.70
2023-04-13T08:00:23.036Z,16.60
2023-04-13T08:02:51.487Z,16.70
2023-04-13T08:05:21.266Z,16.70
2023-04-13T08:07:49.512Z,16.70
2023-04-13T08:10:17.413Z,16.70
2023-04-13T08:12:45.350Z,16.70
2023-04-13T08:15:13.307Z,16.70
2023-04-13T08:17:41.907Z,16.60
2023-04-13T08:20:10.691Z,16.60
2023-04-13T08:22:40.145Z,16.60
2023-04-13T08:25:08.498Z,16.70
2023-04-13T08:27:36.354Z,16.60
2023-04-13T08:30:07.570Z,16.60
2023-04-13T08:32:35.544Z,16.60
2023-04-13T08:35:06.912Z,16.60
2023-04-13T08:37:34.869Z,16.70
2023-04-13T08:40:07.449Z,16.70
2023-04-13T08:42:36.537Z,16.60
2023-04-13T08:45:05.601Z,16.60
2023-04-13T08:47:33.517Z,16.60
2023-04-13T08:50:02.822Z,16.60
2023-04-13T08:52:31.036Z,16.60
2023-04-13T08:55:00.888Z,16.60
2023-04-13T08:57:30.686Z,16.60
2023-04-13T09:00:00.054Z,16.60
2023-04-13T09:02:33.089Z,16.60
2023-04-13T09:05:06.069Z,16.60
2023-04-13T09:07:36.773Z,16.60
2023-04-13T09:10:06.454Z,16.60
2023-04-13T09:12:35.782Z,16.60
2023-04-13T09:15:06.744Z,16.60
2023-04-13T09:17:35.151Z,16.60
2023-04-13T09:20:13.909Z,16.60
2023-04-13T09:22:42.604Z,16.60
2023-04-13T09:25:21.432Z,16.60
2023-04-13T09:27:51.867Z,16.60
2023-04-13T09:30:22.042Z,16.60
2023-04-13T09:33:05.179Z,16.60
2023-04-13T09:35:33.903Z,16.60
2023-04-13T09:38:02.713Z,16.60
2023-04-13T09:40:30.762Z,16.60
2023-04-13T09:43:02.224Z,16.60
2023-04-13T09:45:36.357Z,16.60
2023-04-13T09:48:04.670Z,16.60
2023-04-13T09:50:36.531Z,16.60
2023-04-13T09:53:05.927Z,16.60
2023-04-13T09:55:37.071Z,16.60
2023-04-13T09:58:14.694Z,16.60
2023-04-13T10:00:44.680Z,16.60
2023-04-13T10:03:13.665Z,16.60
2023-04-13T10:05:58.109Z,16.60
2023-04-13T10:11:01.416Z,16.60
2023-04-13T10:13:36.760Z,16.60
2023-04-13T10:16:28.488Z,16.60
2023-04-13T10:19:01.811Z,16.60
2023-04-13T10:21:33.675Z,16.60
2023-04-13T10:24:02.113Z,16.60
2023-04-13T10:26:33.352Z,16.60
2023-04-13T10:29:03.757Z,16.60
2023-04-13T10:31:41.833Z,16.60
2023-04-13T10:34:10.773Z,16.60
2023-04-13T10:36:40.857Z,16.60
2023-04-13T10:39:09.551Z,16.60
2023-04-13T10:41:38.570Z,16.60
2023-04-13T10:44:10.742Z,16.60
2023-04-13T10:46:38.706Z,16.60
2023-04-13T10:49:07.006Z,16.60
2023-04-13T10:51:41.321Z,16.60
2023-04-13T10:54:09.964Z,16.60
2023-04-13T10:56:38.625Z,16.60
2023-04-13T10:59:08.144Z,16.60
2023-04-13T11:01:36.406Z,16.60
2023-04-13T11:04:07.792Z,16.60
2023-04-13T11:06:39.508Z,16.60
2023-04-13T11:09:11.542Z,16.60
2023-04-13T11:11:42.745Z,16.60
2023-04-13T11:14:21.344Z,16.60
2023-04-13T11:16:49.363Z,16.60
2023-04-13T11:19:17.266Z,16.60
2023-04-13T11:21:46.094Z,16.60
2023-04-13T11:24:25.669Z,16.60
2023-04-13T11:26:54.302Z,16.60
2023-04-13T11:29:23.686Z,16.60
2023-04-13T11:31:52.146Z,16.60
2023-04-13T11:34:29.161Z,16.60
2023-04-13T11:37:05.658Z,16.60
2023-04-13T11:39:36.249Z,16.60
2023-04-13T11:42:08.026Z,16.50
2023-04-13T11:44:38.098Z,16.50
2023-04-13T11:47:08.800Z,16.50
2023-04-13T11:49:37.277Z,16.60
2023-04-13T11:52:05.485Z,16.60
2023-04-13T11:54:33.532Z,16.60
2023-04-13T11:57:02.274Z,16.50
2023-04-13T11:59:30.226Z,16.60
2023-04-13T12:02:03.196Z,16.50
2023-04-13T12:04:38.885Z,16.50
2023-04-13T12:07:12.689Z,16.60
2023-04-13T12:09:56.358Z,16.50
2023-04-13T12:15:13.863Z,16.50
2023-04-13T12:17:58.064Z,16.50
2023-04-13T12:20:36.463Z,16.50
2023-04-13T12:23:15.266Z,16.50
2023-04-13T12:25:57.215Z,16.50
2023-04-13T12:28:32.258Z,16.50
2023-04-13T12:31:06.353Z,16.50
2023-04-13T12:33:35.829Z,16.50
2023-04-13T12:36:06.307Z,16.50
2023-04-13T12:38:34.751Z,16.60
2023-04-13T12:41:03.521Z,16.50
2023-04-13T12:43:31.473Z,16.60
2023-04-13T12:45:59.359Z,16.50
2023-04-13T12:48:27.296Z,16.50
2023-04-13T12:50:56.609Z,16.50
2023-04-13T12:53:24.478Z,16.50
2023-04-13T12:55:52.348Z,16.50
2023-04-13T12:58:20.303Z,16.60
2023-04-13T13:00:48.385Z,16.60
2023-04-13T13:03:16.475Z,16.50
2023-04-13T13:05:44.667Z,16.50
2023-04-13T13:08:13.873Z,16.60
2023-04-13T13:10:42.770Z,16.50
2023-04-13T13:13:11.215Z,16.60
2023-04-13T13:15:39.116Z,16.50
2023-04-13T13:18:08.842Z,16.60
2023-04-13T13:20:41.056Z,16.50
2023-04-13T13:23:11.686Z,16.60
2023-04-13T13:25:52.490Z,16.50
2023-04-13T13:28:30.662Z,16.50
2023-04-13T13:30:58.524Z,16.50
2023-04-13T13:33:26.391Z,16.50
2023-04-13T13:35:54.260Z,16.50
2023-04-13T13:38:22.128Z,16.50
2023-04-13T13:40:51.339Z,16.50
2023-04-13T13:43:21.386Z,16.50
2023-04-13T13:45:49.416Z,16.50
2023-04-13T13:48:17.389Z,16.50
2023-04-13T13:50:45.287Z,16.50
2023-04-13T13:53:13.170Z,16.50
2023-04-13T13:55:41.236Z,16.50
2023-04-13T13:58:10.618Z,16.60
2023-04-13T14:00:39.542Z,16.50
2023-04-13T14:03:07.740Z,16.50
2023-04-13T14:05:36.021Z,16.50
2023-04-13T14:08:03.938Z,16.50
2023-04-13T14:10:31.905Z,16.50
2023-04-13T14:13:00.358Z,16.50
2023-04-13T14:15:29.728Z,16.50
2023-04-13T14:18:09.917Z,16.50
2023-04-13T14:20:40.508Z,16.50
2023-04-13T14:23:09.318Z,16.50
2023-04-13T14:25:38.206Z,16.50
2023-04-13T14:28:06.741Z,16.50
2023-04-13T14:30:36.157Z,16.50
2023-04-13T14:33:04.545Z,16.50
2023-04-13T14:35:32.564Z,16.50
2023-04-13T14:38:00.638Z,16.50
2023-04-13T14:40:28.850Z,16.50
2023-04-13T14:42:56.737Z,16.50
2023-04-13T14:45:24.926Z,16.50
2023-04-13T14:47:54.666Z,16.50
2023-04-13T14:50:23.070Z,16.50
2023-04-13T14:52:51.272Z,16.50
2023-04-13T14:55:19.725Z,16.50
2023-04-13T14:57:48.088Z,16.50
2023-04-13T15:00:21.472Z,16.50
2023-04-13T15:02:50.445Z,16.50
2023-04-13T15:05:20.043Z,16.50
2023-04-13T15:07:48.391Z,16.50
2023-04-13T15:10:16.617Z,16.50
2023-04-13T15:12:44.633Z,16.50
2023-04-13T15:15:12.836Z,16.50
2023-04-13T15:17:40.747Z,16.50
2023-04-13T15:20:10.737Z,16.50
2023-04-13T15:22:40.096Z,16.50
2023-04-13T15:25:08.636Z,16.50
2023-04-13T15:27:36.791Z,16.50
2023-04-13T15:30:05.215Z,16.50
2023-04-13T15:32:36.181Z,16.50
2023-04-13T15:35:04.418Z,16.50
2023-04-13T15:37:32.304Z,16.50
2023-04-13T15:40:04.655Z,16.50
2023-04-13T15:42:32.534Z,16.50
2023-04-13T15:45:01.158Z,16.50
2023-04-13T15:47:29.576Z,16.50
2023-04-13T15:49:57.473Z,16.50
2023-04-13T15:52:25.408Z,16.50
2023-04-13T15:54:53.379Z,16.50
2023-04-13T15:57:22.874Z,16.50
2023-04-13T15:59:50.716Z,16.50
2023-04-13T16:02:18.743Z,16.50
2023-04-13T16:04:46.838Z,16.50
2023-04-13T16:07:15.079Z,16.50
2023-04-13T16:09:44.973Z,16.50
2023-04-13T16:12:13.313Z,16.50
2023-04-13T16:14:44.688Z,16.50
2023-04-13T16:17:13.225Z,16.50
2023-04-13T16:19:41.190Z,16.50
2023-04-13T16:22:10.813Z,16.50
2023-04-13T16:24:38.766Z,16.50
2023-04-13T16:27:07.241Z,16.50
2023-04-13T16:29:35.157Z,16.50
2023-04-13T16:32:04.420Z,16.50
2023-04-13T16:34:32.332Z,16.50
2023-04-13T16:37:00.204Z,16.50
2023-04-13T16:39:28.111Z,16.50
2023-04-13T16:41:55.986Z,16.50
2023-04-13T16:44:23.861Z,16.50
2023-04-13T16:46:51.809Z,16.50
2023-04-13T16:49:21.376Z,16.50
2023-04-13T16:51:49.479Z,16.50
2023-04-13T16:54:18.126Z,16.50
2023-04-13T16:56:46.190Z,16.50
2023-04-13T16:59:14.317Z,16.50
2023-04-13T17:01:42.286Z,16.50
2023-04-13T17:04:10.346Z,16.50
2023-04-13T17:06:40.323Z,16.50
2023-04-13T17:09:09.076Z,16.50
2023-04-13T17:11:37.135Z,16.50
2023-04-13T17:14:05.021Z,16.50
2023-04-13T17:16:33.046Z,16.50
2023-04-13T17:19:01.581Z,16.50
2023-04-13T17:21:29.826Z,16.50
2023-04-13T17:23:59.005Z,16.50
2023-04-13T17:26:27.117Z,16.50
2023-04-13T17:28:55.029Z,16.50
2023-04-13T17:31:23.143Z,16.50
2023-04-13T17:33:51.254Z,16.50
2023-04-13T17:36:19.426Z,16.50
2023-04-13T17:38:47.337Z,16.50
2023-04-13T17:41:16.586Z,16.50
2023-04-13T17:43:44.456Z,16.50
2023-04-13T17:46:12.571Z,16.50
2023-04-13T17:48:40.849Z,16.50
2023-04-13T17:51:11.522Z,16.50
2023-04-13T17:53:39.620Z,16.50
2023-04-13T17:56:07.834Z,16.50
2023-04-13T17:58:37.100Z,16.50
2023-04-13T18:01:08.946Z,16.50
2023-04-13T18:03:37.434Z,16.50
2023-04-13T18:06:06.811Z,16.50
2023-04-13T18:08:34.711Z,16.50
2023-04-13T18:11:02.786Z,16.50
2023-04-13T18:13:31.977Z,16.50
2023-04-13T18:16:01.589Z,16.50
2023-04-13T18:18:29.462Z,16.50
2023-04-13T18:20:57.331Z,16.50
2023-04-13T18:23:25.195Z,16.50
2023-04-13T18:25:53.116Z,16.50
2023-04-13T18:28:21.108Z,16.50
2023-04-13T18:30:49.085Z,16.50
2023-04-13T18:33:18.331Z,16.50
2023-04-13T18:35:46.813Z,16.50
2023-04-13T18:38:14.831Z,16.50
2023-04-13T18:40:43.243Z,16.40
2023-04-13T18:43:11.122Z,16.50
2023-04-13T18:45:39.243Z,16.50
2023-04-13T18:48:09.424Z,16.50
2023-04-13T18:50:39.323Z,16.50
2023-04-13T18:53:07.303Z,16.50
2023-04-13T18:55:36.297Z,16.50
2023-04-13T18:58:04.396Z,16.50
2023-04-13T19:00:32.849Z,16.50
2023-04-13T19:03:01.312Z,16.50
2023-04-13T19:05:30.320Z,16.50
2023-04-13T19:08:00.754Z,16.40
2023-04-13T19:10:29.103Z,16.40
2023-04-13T19:12:57.033Z,16.50
2023-04-13T19:15:25.113Z,16.40
2023-04-13T19:17:53.637Z,16.40
2023-04-13T19:20:23.297Z,16.40
2023-04-13T19:22:52.014Z,16.40
2023-04-13T19:25:21.461Z,16.40
2023-04-13T19:27:50.177Z,16.40
2023-04-13T19:30:19.763Z,16.40
2023-04-13T19:32:50.733Z,16.40
2023-04-13T19:35:21.480Z,16.40
2023-04-13T19:37:49.393Z,16.50
2023-04-13T19:40:17.854Z,16.40
2023-04-13T19:42:47.953Z,16.40
2023-04-13T19:45:16.505Z,16.50
2023-04-13T19:47:44.555Z,16.40
2023-04-13T19:50:14.038Z,16.40
2023-04-13T19:52:42.431Z,16.40
2023-04-13T19:55:12.039Z,16.40
2023-04-13T19:57:42.821Z,16.40
2023-04-13T20:00:20.825Z,16.40
2023-04-13T20:02:51.707Z,16.40
2023-04-13T20:05:21.222Z,16.40
2023-04-13T20:07:49.595Z,16.40
2023-04-13T20:10:17.557Z,16.40
2023-04-13T20:12:45.572Z,16.40
2023-04-13T20:15:14.903Z,16.40
2023-04-13T20:17:42.802Z,16.40
2023-04-13T20:20:11.301Z,16.40
2023-04-13T20:22:39.910Z,16.40
2023-04-13T20:25:09.132Z,16.40
2023-04-13T20:27:41.746Z,16.40
2023-04-13T20:30:10.941Z,16.40
2023-04-13T20:32:40.426Z,16.40
2023-04-13T20:35:09.457Z,16.40
2023-04-13T20:37:37.339Z,16.40
2023-04-13T20:40:07.002Z,16.40
2023-04-13T20:42:35.026Z,16.40
2023-04-13T20:45:04.897Z,16.40
2023-04-13T20:47:35.558Z,16.40
2023-04-13T20:50:05.784Z,16.40
2023-04-13T20:52:33.701Z,16.40
2023-04-13T20:55:01.655Z,16.40
2023-04-13T20:57:30.370Z,16.40
2023-04-13T20:59:58.330Z,16.40
2023-04-13T21:02:26.601Z,16.40
2023-04-13T21:04:56.532Z,16.40
2023-04-13T21:07:25.794Z,16.40
2023-04-13T21:09:53.663Z,16.40
2023-04-13T21:12:21.589Z,16.40
2023-04-13T21:14:49.489Z,16.40
2023-04-13T21:17:17.374Z,16.40
2023-04-13T21:19:45.279Z,16.40
2023-04-13T21:22:13.177Z,16.40
2023-04-13T21:24:42.486Z,16.40
2023-04-13T21:27:10.385Z,16.40
2023-04-13T21:29:38.222Z,16.40
2023-04-13T21:32:06.445Z,16.40
2023-04-13T21:34:34.341Z,16.40
2023-04-13T21:37:03.211Z,16.40
2023-04-13T21:39:31.223Z,16.40
2023-04-13T21:42:00.571Z,16.40
2023-04-13T21:44:30.065Z,16.40
2023-04-13T21:46:58.562Z,16.40
2023-04-13T21:49:27.136Z,16.40
2023-04-13T21:51:55.034Z,16.40
2023-04-13T21:54:22.945Z,16.40
2023-04-13T21:56:50.971Z,16.40
2023-04-13T21:59:20.319Z,16.40
2023-04-13T22:01:48.472Z,16.40
2023-04-13T22:04:16.550Z,16.40
2023-04-13T22:06:44.494Z,16.40
2023-04-13T22:09:12.562Z,16.40
2023-04-13T22:11:40.873Z,16.40
2023-04-13T22:14:08.801Z,16.40
2023-04-13T22:16:38.045Z,16.40
2023-04-13T22:19:06.221Z,16.40
2023-04-13T22:21:36.500Z,16.30
2023-04-13T22:24:04.583Z,16.30
2023-04-13T22:26:32.494Z,16.40
2023-04-13T22:29:00.516Z,16.30
2023-04-13T22:31:28.692Z,16.30
2023-04-13T22:33:57.878Z,16.40
2023-04-13T22:36:27.073Z,16.30
2023-04-13T22:38:55.052Z,16.30
2023-04-13T22:41:22.889Z,16.30
2023-04-13T22:43:50.802Z,16.30
2023-04-13T22:46:18.803Z,16.30
2023-04-13T22:48:46.764Z,16.40
2023-04-13T22:51:16.306Z,16.30
2023-04-13T22:53:44.684Z,16.30
2023-04-13T22:56:12.535Z,16.30
2023-04-13T22:58:40.411Z,16.30
2023-04-13T23:01:08.354Z,16.30
2023-04-13T23:03:36.682Z,16.30
2023-04-13T23:06:05.776Z,16.30
2023-04-13T23:08:35.015Z,16.30
2023-04-13T23:11:09.003Z,16.40
2023-04-13T23:13:37.044Z,16.30
2023-04-13T23:16:06.737Z,16.30
2023-04-13T23:18:34.744Z,16.30
2023-04-13T23:21:10.570Z,16.30
2023-04-13T23:23:40.507Z,16.30
2023-04-13T23:26:08.416Z,16.30
2023-04-13T23:28:36.291Z,16.30
2023-04-13T23:31:05.356Z,16.30
2023-04-13T23:33:33.301Z,16.30
2023-04-13T23:36:01.527Z,16.30
2023-04-13T23:38:29.668Z,16.30
2023-04-13T23:40:58.962Z,16.30
2023-04-13T23:43:26.929Z,16.30
2023-04-13T23:45:55.178Z,16.30
2023-04-13T23:48:24.539Z,16.30
2023-04-13T23:50:52.417Z,16.30
2023-04-13T23:53:20.744Z,16.30
2023-04-13T23:55:48.668Z,16.30
2023-04-13T23:58:17.887Z,16.30
